New Richmond Regional Airport
KRNH : now visible

Airfield :











YOU CAN JOIN US ON...

 
LOGIN :

Register | Disclaimer

   EN    FR    IT 

 









Legend :    VFR   Marginal VFR   IFR   Intensive IFR   Very Intensive IFR
Visi :
Ceiling :
>= 8 km
>= 3000ft
5 to 8 km
1000 to 3000 ft
1500m to 5 km
500 to 1000 ft
800 to 1500m
200 to 500 ft
< 800m
< 200 ft
Symbols :   Thunderstorms  Fog  Heavy snow  Heavy precipitations  Wind > 20 kt






- Airport Elevation : 998 ft


KRNH - New Richmond Regional

CURRENT METAR :
  • 171935Z AUTO 16007KT 140V200 10SM SCT065 24/07 A3014 RMK AO2 T02420065

EXPIRED METARs :
  • 171915Z AUTO 12006KT 10SM CLR 24/07 A3014 RMK AO2 T02400068
  • 171855Z AUTO 12005G14KT 10SM SCT060 24/06 A3014 RMK AO2 T02350063
  • 171835Z AUTO 20004KT 10SM CLR 23/07 A3015 RMK AO2 T02320072
  • 171815Z AUTO 15006KT 10SM CLR 24/07 A3015 RMK AO2 T02350072
  • 171755Z AUTO 15009KT 120V180 10SM SCT050 23/06 A3015 RMK AO2 T02300056 10230 20103
  • 171735Z AUTO 16005KT 10SM SCT050 23/09 A3016 RMK AO2 T02270086
  • 171715Z AUTO 15003KT 10SM CLR 22/08 A3016 RMK AO2 T02240082
  • 171655Z AUTO 16006KT 10SM CLR 22/09 A3016 RMK AO2 T02170092

TAF KRNH
Valid from the 17 at 18:00 until the 18 at 18:00 UTC


171735Z 1718/1818 15008KT P6SM SCT050
FM180200 12003KT P6SM SKC
FM181500 13009KT P6SM BKN050
FM181700 13011KT P6SM BKN030
KZMP FIR / North America



MET'MAP, your aeronautical weather chart ! - Copyright ORBIFLY December 2007 - Disclaimer

ORBIFLY MET'MAP TEAM :

Programming & Development : Alexandra Zaïnal
Concept & original design : Baudouin d'Aumeries
Assistance for programming : Marc-Olivier Méhu
Technical & hardware support : Manuel Goepfert

Contact : metmap@orbifly.com




SOURCES & CREDITS :

   NOAA       Earth
Advisory